createdAt,value
2023-01-13T00:01:30.093Z,12.95
2023-01-13T00:03:58.567Z,13.10
2023-01-13T00:06:27.365Z,13.27
2023-01-13T00:08:55.791Z,13.32
2023-01-13T00:11:25.978Z,13.71
2023-01-13T00:13:54.576Z,13.78
2023-01-13T00:16:23.030Z,13.64
2023-01-13T00:18:51.503Z,13.74
2023-01-13T00:21:22.979Z,12.88
2023-01-13T00:23:53.787Z,13.13
2023-01-13T00:26:28.100Z,13.25
2023-01-13T00:28:58.313Z,13.26
2023-01-13T00:31:28.409Z,13.08
2023-01-13T00:33:57.961Z,13.28
2023-01-13T00:36:28.107Z,13.60
2023-01-13T00:38:57.236Z,13.43
2023-01-13T00:41:26.813Z,13.54
2023-01-13T00:43:55.267Z,13.50
2023-01-13T00:46:23.906Z,13.32
2023-01-13T00:48:52.900Z,13.33
2023-01-13T00:51:21.680Z,13.35
2023-01-13T00:53:51.602Z,12.66
2023-01-13T00:56:39.344Z,13.30
2023-01-13T00:59:11.874Z,13.06
2023-01-13T01:01:41.283Z,13.53
2023-01-13T01:04:09.953Z,13.47
2023-01-13T01:06:38.538Z,13.24
2023-01-13T01:09:07.021Z,13.41
2023-01-13T01:11:35.531Z,13.09
2023-01-13T01:14:04.784Z,12.98
2023-01-13T01:16:34.526Z,13.22
2023-01-13T01:19:03.892Z,13.10
2023-01-13T01:21:33.439Z,12.57
2023-01-13T01:24:03.534Z,12.62
2023-01-13T01:26:33.018Z,13.12
2023-01-13T01:29:02.269Z,13.40
2023-01-13T01:31:33.217Z,13.28
2023-01-13T01:34:02.093Z,13.02
2023-01-13T01:36:30.532Z,12.87
2023-01-13T01:38:59.976Z,12.66
2023-01-13T01:41:31.981Z,13.13
2023-01-13T01:44:38.021Z,12.66
2023-01-13T01:47:06.721Z,12.38
2023-01-13T01:49:37.886Z,12.74
2023-01-13T01:52:07.948Z,12.75
2023-01-13T01:54:46.949Z,12.60
2023-01-13T01:57:20.664Z,12.73
2023-01-13T01:59:49.680Z,12.76
2023-01-13T02:02:18.472Z,12.51
2023-01-13T02:04:53.382Z,12.70
2023-01-13T02:07:26.390Z,12.68
2023-01-13T02:09:57.701Z,12.94
2023-01-13T02:12:30.001Z,13.12
2023-01-13T02:15:03.569Z,12.81
2023-01-13T02:18:02.743Z,12.90
2023-01-13T02:20:58.938Z,12.37
2023-01-13T02:24:08.048Z,12.96
2023-01-13T02:27:17.937Z,12.81
2023-01-13T02:30:09.915Z,12.64
2023-01-13T02:32:56.516Z,12.47
2023-01-13T02:35:37.325Z,12.80
2023-01-13T02:38:08.444Z,12.48
2023-01-13T02:40:46.507Z,12.63
2023-01-13T02:43:44.108Z,12.71
2023-01-13T02:46:28.129Z,12.79
2023-01-13T02:49:01.324Z,12.52
2023-01-13T02:51:32.486Z,12.47
2023-01-13T02:54:05.186Z,12.38
2023-01-13T02:56:40.528Z,12.19
2023-01-13T02:59:10.417Z,12.29
2023-01-13T03:01:38.919Z,11.96
2023-01-13T03:04:49.417Z,12.50
2023-01-13T03:07:58.955Z,12.91
2023-01-13T03:10:37.719Z,12.39
2023-01-13T03:13:24.874Z,12.71
2023-01-13T03:16:20.825Z,12.90
2023-01-13T03:19:32.332Z,12.31
2023-01-13T03:22:19.067Z,12.27
2023-01-13T03:25:02.538Z,12.49
2023-01-13T03:27:48.981Z,11.89
2023-01-13T03:30:23.132Z,11.90
2023-01-13T03:33:01.740Z,12.42
2023-01-13T03:35:37.929Z,12.40
2023-01-13T03:38:18.692Z,12.40
2023-01-13T03:40:54.709Z,12.39
2023-01-13T03:43:59.417Z,12.32
2023-01-13T03:46:37.685Z,12.14
2023-01-13T03:49:08.933Z,12.07
2023-01-13T03:51:41.110Z,11.92
2023-01-13T03:54:11.907Z,12.12
2023-01-13T03:56:47.861Z,11.96
2023-01-13T03:59:28.478Z,11.85
2023-01-13T04:02:17.375Z,11.90
2023-01-13T04:05:09.193Z,12.46
2023-01-13T04:07:49.799Z,12.36
2023-01-13T04:10:30.119Z,12.62
2023-01-13T04:13:14.627Z,12.24
2023-01-13T04:15:45.120Z,12.08
2023-01-13T04:18:16.479Z,11.41
2023-01-13T04:20:47.965Z,11.70
2023-01-13T04:23:17.922Z,11.93
2023-01-13T04:25:47.435Z,11.50
2023-01-13T04:28:16.393Z,11.27
2023-01-13T04:30:45.935Z,11.64
2023-01-13T04:33:16.201Z,12.52
2023-01-13T04:35:46.215Z,12.54
2023-01-13T04:38:17.691Z,12.31
2023-01-13T04:40:46.733Z,12.47
2023-01-13T04:43:15.742Z,12.21
2023-01-13T04:45:44.457Z,12.55
2023-01-13T04:48:13.167Z,12.11
2023-01-13T04:50:41.825Z,12.47
2023-01-13T04:53:10.744Z,12.63
2023-01-13T04:55:39.224Z,12.55
2023-01-13T04:58:09.524Z,12.25
2023-01-13T05:00:38.200Z,12.66
2023-01-13T05:03:06.709Z,12.53
2023-01-13T05:05:35.429Z,12.48
2023-01-13T05:08:04.734Z,12.34
2023-01-13T05:10:33.240Z,11.59
2023-01-13T05:13:20.685Z,11.64
2023-01-13T05:16:08.705Z,12.36
2023-01-13T05:18:38.860Z,12.39
2023-01-13T05:21:27.197Z,12.64
2023-01-13T05:24:14.316Z,12.44
2023-01-13T05:26:42.735Z,11.97
2023-01-13T05:29:11.205Z,12.20
2023-01-13T05:31:39.641Z,11.52
2023-01-13T05:34:08.136Z,11.43
2023-01-13T05:36:36.525Z,11.51
2023-01-13T05:39:05.256Z,11.40
2023-01-13T05:41:52.359Z,11.47
2023-01-13T05:44:20.775Z,11.33
2023-01-13T05:46:49.883Z,12.14
2023-01-13T05:49:18.395Z,12.10
2023-01-13T05:51:46.838Z,11.58
2023-01-13T05:54:15.297Z,12.14
2023-01-13T05:56:43.729Z,12.13
2023-01-13T05:59:12.233Z,11.88
2023-01-13T06:01:40.658Z,11.55
2023-01-13T06:04:09.065Z,11.98
2023-01-13T06:06:37.627Z,11.17
2023-01-13T06:09:05.969Z,10.55
2023-01-13T06:11:34.467Z,11.36
2023-01-13T06:14:02.860Z,11.76
2023-01-13T06:16:31.429Z,11.05
2023-01-13T06:19:00.040Z,11.85
2023-01-13T06:21:28.444Z,11.83
2023-01-13T06:23:59.001Z,11.78
2023-01-13T06:26:31.103Z,11.99
2023-01-13T06:28:59.562Z,11.65
2023-01-13T06:31:28.631Z,11.07
2023-01-13T06:34:04.271Z,11.90
2023-01-13T06:36:43.300Z,12.17
2023-01-13T06:39:17.183Z,11.20
2023-01-13T06:42:08.062Z,11.77
2023-01-13T06:44:36.702Z,11.95
2023-01-13T06:47:06.205Z,11.64
2023-01-13T06:49:34.706Z,11.22
2023-01-13T06:52:03.253Z,11.27
2023-01-13T06:54:31.858Z,11.85
2023-01-13T06:57:01.307Z,11.86
2023-01-13T06:59:30.161Z,11.24
2023-01-13T07:01:58.765Z,11.72
2023-01-13T07:04:27.239Z,12.20
2023-01-13T07:06:56.012Z,11.69
2023-01-13T07:09:24.479Z,11.73
2023-01-13T07:11:53.008Z,11.90
2023-01-13T07:14:39.994Z,12.13
2023-01-13T07:17:08.465Z,12.20
2023-01-13T07:19:37.053Z,11.29
2023-01-13T07:22:05.432Z,11.19
2023-01-13T07:24:33.799Z,11.18
2023-01-13T07:27:02.301Z,11.47
2023-01-13T07:29:30.869Z,11.10
2023-01-13T07:31:59.526Z,11.23
2023-01-13T07:34:28.176Z,11.68
2023-01-13T07:36:56.603Z,11.40
2023-01-13T07:39:25.212Z,11.55
2023-01-13T07:42:12.356Z,11.77
2023-01-13T07:44:40.852Z,11.89
2023-01-13T07:47:11.108Z,11.04
2023-01-13T07:49:39.693Z,11.21
2023-01-13T07:52:08.828Z,11.27
2023-01-13T07:54:40.994Z,11.59
2023-01-13T07:57:09.640Z,10.82
2023-01-13T07:59:38.104Z,10.84
2023-01-13T08:02:06.943Z,11.47
2023-01-13T08:04:35.825Z,11.77
2023-01-13T08:07:05.193Z,11.94
2023-01-13T08:09:34.027Z,11.91
2023-01-13T08:12:21.127Z,11.85
2023-01-13T08:14:51.048Z,11.96
2023-01-13T08:17:20.608Z,11.40
2023-01-13T08:19:49.295Z,11.84
2023-01-13T08:22:17.834Z,11.01
2023-01-13T08:24:46.377Z,11.18
2023-01-13T08:27:14.871Z,11.29
2023-01-13T08:29:43.264Z,11.84
2023-01-13T08:32:11.701Z,11.28
2023-01-13T08:34:40.192Z,10.91
2023-01-13T08:37:08.758Z,11.11
2023-01-13T08:39:37.266Z,11.51
2023-01-13T08:42:06.073Z,12.02
2023-01-13T08:44:34.675Z,12.00
2023-01-13T08:47:03.323Z,10.87
2023-01-13T08:49:31.811Z,11.18
2023-01-13T08:52:00.338Z,11.34
2023-01-13T08:54:28.838Z,11.24
2023-01-13T08:56:57.990Z,11.36
2023-01-13T08:59:26.519Z,11.74
2023-01-13T09:01:55.206Z,11.70
2023-01-13T09:04:26.219Z,10.74
2023-01-13T09:06:55.753Z,11.34
2023-01-13T09:09:25.390Z,11.07
2023-01-13T09:12:12.223Z,10.91
2023-01-13T09:14:40.946Z,11.56
2023-01-13T09:17:09.325Z,11.91
2023-01-13T09:19:37.788Z,12.20
2023-01-13T09:22:06.647Z,12.06
2023-01-13T09:24:35.078Z,11.98
2023-01-13T09:27:03.675Z,11.65
2023-01-13T09:29:32.142Z,11.86
2023-01-13T09:32:00.717Z,11.65
2023-01-13T09:34:47.996Z,11.72
2023-01-13T09:37:16.545Z,11.89
2023-01-13T09:39:45.142Z,11.88
2023-01-13T09:42:35.210Z,11.91
2023-01-13T09:45:25.843Z,12.11
2023-01-13T09:48:16.100Z,12.18
2023-01-13T09:51:14.590Z,12.50
2023-01-13T09:54:07.131Z,11.74
2023-01-13T09:56:35.488Z,12.44
2023-01-13T09:59:03.943Z,12.24
2023-01-13T10:01:41.762Z,12.09
2023-01-13T10:04:12.067Z,11.81
2023-01-13T10:06:44.256Z,12.02
2023-01-13T10:09:14.528Z,12.01
2023-01-13T10:12:06.376Z,11.86
2023-01-13T10:14:41.305Z,12.11
2023-01-13T10:17:44.835Z,12.82
2023-01-13T10:20:31.459Z,12.64
2023-01-13T10:23:08.923Z,11.92
2023-01-13T10:25:40.222Z,11.62
2023-01-13T10:28:12.246Z,11.76
2023-01-13T10:30:43.690Z,11.27
2023-01-13T10:33:22.633Z,11.96
2023-01-13T10:35:57.008Z,12.44
2023-01-13T10:38:37.695Z,12.22
2023-01-13T10:41:17.809Z,11.84
2023-01-13T10:44:00.987Z,11.22
2023-01-13T10:46:31.754Z,11.55
2023-01-13T10:49:36.112Z,11.73
2023-01-13T10:52:25.421Z,11.25
2023-01-13T10:54:55.313Z,11.23
2023-01-13T10:57:28.112Z,11.37
2023-01-13T10:59:56.653Z,11.86
2023-01-13T11:02:30.120Z,11.96
2023-01-13T11:05:09.119Z,11.55
2023-01-13T11:07:58.042Z,11.66
2023-01-13T11:10:29.410Z,11.44
2023-01-13T11:13:18.452Z,10.97
2023-01-13T11:16:13.153Z,11.56
2023-01-13T11:19:14.139Z,11.91
2023-01-13T11:22:07.119Z,11.77
2023-01-13T11:24:52.890Z,11.65
2023-01-13T11:27:24.234Z,11.05
2023-01-13T11:29:55.409Z,12.29
2023-01-13T11:32:25.102Z,11.68
2023-01-13T11:35:02.356Z,12.11
2023-01-13T11:37:33.504Z,12.26
2023-01-13T11:40:05.790Z,12.40
2023-01-13T11:42:43.665Z,12.55
2023-01-13T11:45:19.988Z,12.74
2023-01-13T11:47:52.102Z,12.11
2023-01-13T11:50:29.716Z,12.29
2023-01-13T11:53:31.526Z,11.85
2023-01-13T11:56:19.317Z,12.72
2023-01-13T11:59:12.374Z,12.37
2023-01-13T12:02:04.829Z,12.45
2023-01-13T12:04:40.837Z,11.89
2023-01-13T12:07:22.152Z,11.95
2023-01-13T12:09:57.518Z,12.29
2023-01-13T12:12:48.934Z,11.58
2023-01-13T12:15:25.899Z,11.71
2023-01-13T12:18:19.276Z,11.94
2023-01-13T12:20:55.854Z,11.59
2023-01-13T12:23:33.999Z,12.32
2023-01-13T12:26:10.426Z,12.18
2023-01-13T12:29:00.721Z,12.06
2023-01-13T12:31:30.838Z,11.96
2023-01-13T12:34:19.529Z,12.03
2023-01-13T12:36:58.549Z,11.21
2023-01-13T12:39:42.972Z,11.87
2023-01-13T12:42:45.373Z,11.38
2023-01-13T12:45:13.733Z,11.60
2023-01-13T12:47:44.056Z,11.32
2023-01-13T12:50:21.729Z,11.30
2023-01-13T12:53:01.347Z,11.72
2023-01-13T12:55:36.658Z,11.35
2023-01-13T12:58:12.043Z,10.95
2023-01-13T13:00:40.577Z,11.58
2023-01-13T13:03:12.408Z,11.73
2023-01-13T13:06:02.877Z,11.42
2023-01-13T13:08:58.155Z,11.48
2023-01-13T13:11:59.559Z,11.69
2023-01-13T13:14:37.328Z,11.67
2023-01-13T13:17:28.603Z,12.13
2023-01-13T13:19:58.819Z,11.97
2023-01-13T13:22:27.204Z,11.84
2023-01-13T13:24:55.818Z,11.68
2023-01-13T13:28:06.093Z,11.83
2023-01-13T13:30:43.729Z,11.31
2023-01-13T13:33:54.488Z,12.44
2023-01-13T13:36:32.417Z,12.06
2023-01-13T13:39:28.496Z,11.40
2023-01-13T13:42:28.257Z,12.11
2023-01-13T13:45:17.398Z,11.40
2023-01-13T13:47:45.826Z,11.85
2023-01-13T13:50:20.501Z,12.62
2023-01-13T13:52:55.787Z,11.37
2023-01-13T13:55:29.426Z,12.27
2023-01-13T13:57:59.292Z,11.23
2023-01-13T14:00:34.422Z,11.64
2023-01-13T14:03:17.624Z,11.57
2023-01-13T14:05:59.389Z,11.61
2023-01-13T14:08:30.980Z,11.45
2023-01-13T14:10:59.640Z,11.71
2023-01-13T14:13:30.141Z,12.19
2023-01-13T14:16:01.313Z,11.94
2023-01-13T14:18:33.112Z,11.94
2023-01-13T14:21:22.233Z,12.01
2023-01-13T14:23:56.595Z,11.94
2023-01-13T14:26:31.139Z,12.13
2023-01-13T14:29:01.860Z,11.47
2023-01-13T14:31:31.344Z,12.20
2023-01-13T14:34:03.459Z,11.75
2023-01-13T14:36:52.044Z,11.85
2023-01-13T14:39:25.670Z,12.14
2023-01-13T14:41:54.132Z,11.99
2023-01-13T14:44:26.980Z,12.42
2023-01-13T14:46:57.867Z,11.62
2023-01-13T14:49:31.993Z,11.66
2023-01-13T14:52:07.333Z,11.60
2023-01-13T14:54:45.770Z,12.54
2023-01-13T14:57:32.106Z,12.23
2023-01-13T15:00:07.982Z,11.79
2023-01-13T15:02:58.098Z,12.44
2023-01-13T15:05:26.596Z,11.91
2023-01-13T15:08:00.172Z,12.13
2023-01-13T15:10:37.174Z,11.36
2023-01-13T15:13:07.292Z,12.39
2023-01-13T15:15:39.341Z,11.66
2023-01-13T15:18:15.293Z,12.12
2023-01-13T15:20:44.574Z,11.78
2023-01-13T15:23:13.221Z,12.42
2023-01-13T15:25:42.960Z,12.72
2023-01-13T15:28:23.043Z,12.47
2023-01-13T15:30:53.560Z,12.40
2023-01-13T15:33:22.801Z,12.23
2023-01-13T15:35:53.362Z,12.07
2023-01-13T15:38:24.004Z,11.94
2023-01-13T15:40:53.309Z,12.15
2023-01-13T15:43:42.085Z,12.18
2023-01-13T15:46:38.358Z,12.10
2023-01-13T15:49:27.238Z,12.54
2023-01-13T15:51:55.890Z,12.64
2023-01-13T15:54:24.831Z,12.62
2023-01-13T15:56:54.122Z,12.05
2023-01-13T15:59:26.491Z,12.55
2023-01-13T16:01:55.062Z,12.34
2023-01-13T16:04:23.603Z,12.20
2023-01-13T16:06:52.014Z,12.27
2023-01-13T16:09:20.497Z,12.77
2023-01-13T16:11:48.893Z,12.38
2023-01-13T16:14:17.465Z,12.49
2023-01-13T16:16:45.962Z,12.40
2023-01-13T16:19:14.468Z,12.39
2023-01-13T16:21:42.937Z,12.66
2023-01-13T16:24:11.489Z,12.09
2023-01-13T16:26:40.067Z,11.66
2023-01-13T16:29:12.415Z,12.39
2023-01-13T16:31:40.862Z,11.57
2023-01-13T16:34:09.319Z,12.44
2023-01-13T16:36:37.996Z,11.63
2023-01-13T16:39:20.308Z,12.50
2023-01-13T16:41:49.429Z,11.21
2023-01-13T16:44:18.071Z,11.79
2023-01-13T16:46:47.517Z,12.02
2023-01-13T16:49:17.633Z,11.67
2023-01-13T16:51:46.102Z,11.39
2023-01-13T16:54:14.563Z,11.77
2023-01-13T16:56:43.076Z,11.92
2023-01-13T16:59:14.197Z,12.08
2023-01-13T17:01:44.913Z,11.53
2023-01-13T17:04:16.441Z,11.67
2023-01-13T17:07:00.425Z,11.85
2023-01-13T17:09:29.410Z,12.04
2023-01-13T17:11:58.588Z,12.58
2023-01-13T17:14:27.181Z,12.41
2023-01-13T17:16:59.164Z,12.42
2023-01-13T17:19:27.749Z,12.88
2023-01-13T17:21:56.198Z,12.51
2023-01-13T17:24:25.937Z,13.08
2023-01-13T17:26:54.450Z,12.00
2023-01-13T17:29:25.670Z,11.72
2023-01-13T17:31:54.413Z,12.22
2023-01-13T17:34:23.057Z,12.75
2023-01-13T17:36:51.564Z,12.05
2023-01-13T17:39:25.503Z,11.94
2023-01-13T17:41:55.903Z,12.31
2023-01-13T17:44:24.547Z,11.17
2023-01-13T17:46:53.012Z,11.65
2023-01-13T17:49:21.963Z,12.20
2023-01-13T17:51:51.577Z,12.69
2023-01-13T17:54:20.273Z,12.24
2023-01-13T17:56:49.264Z,12.37
2023-01-13T17:59:19.672Z,12.27
2023-01-13T18:01:48.410Z,12.21
2023-01-13T18:04:27.563Z,11.81
2023-01-13T18:06:56.921Z,12.32
2023-01-13T18:09:26.398Z,11.76
2023-01-13T18:11:54.886Z,12.02
2023-01-13T18:14:23.374Z,11.79
2023-01-13T18:16:52.005Z,11.68
2023-01-13T18:19:38.799Z,11.31
2023-01-13T18:22:27.516Z,11.72
2023-01-13T18:25:14.485Z,11.77
2023-01-13T18:27:42.920Z,12.01
2023-01-13T18:30:12.552Z,11.59
2023-01-13T18:32:41.018Z,12.25
2023-01-13T18:35:10.425Z,11.98
2023-01-13T18:37:42.256Z,12.24
2023-01-13T18:40:13.244Z,12.14
2023-01-13T18:42:51.153Z,11.51
2023-01-13T18:45:28.318Z,11.62
2023-01-13T18:47:59.640Z,11.86
2023-01-13T18:50:29.239Z,11.92
2023-01-13T18:52:58.682Z,11.38
2023-01-13T18:55:28.620Z,10.90
2023-01-13T18:57:57.749Z,12.17
2023-01-13T19:00:27.374Z,11.37
2023-01-13T19:05:36.259Z,11.10
2023-01-13T19:08:05.584Z,10.92
2023-01-13T19:10:34.175Z,10.93
2023-01-13T19:13:02.817Z,12.05
2023-01-13T19:15:31.493Z,11.64
2023-01-13T19:18:00.319Z,12.00
2023-01-13T19:20:28.722Z,11.88
2023-01-13T19:22:57.213Z,11.26
2023-01-13T19:25:25.768Z,10.58
2023-01-13T19:27:54.260Z,10.99
2023-01-13T19:30:22.767Z,11.70
2023-01-13T19:32:51.382Z,11.49
2023-01-13T19:35:20.114Z,11.42
2023-01-13T19:37:49.475Z,11.33
2023-01-13T19:40:18.158Z,10.82
2023-01-13T19:43:05.104Z,11.00
2023-01-13T19:45:35.461Z,11.51
2023-01-13T19:48:05.855Z,11.38
2023-01-13T19:50:41.489Z,11.23
2023-01-13T19:53:17.412Z,11.86
2023-01-13T19:55:48.525Z,11.98
2023-01-13T19:58:23.039Z,12.16
2023-01-13T20:00:55.293Z,11.72
2023-01-13T20:03:25.824Z,11.66
2023-01-13T20:05:54.636Z,11.83
2023-01-13T20:08:23.309Z,11.33
2023-01-13T20:11:11.734Z,11.97
2023-01-13T20:13:40.117Z,12.03
2023-01-13T20:16:09.031Z,11.99
2023-01-13T20:18:37.566Z,11.93
2023-01-13T20:21:07.429Z,11.69
2023-01-13T20:23:36.156Z,11.98
2023-01-13T20:26:07.651Z,12.00
2023-01-13T20:28:38.840Z,11.56
2023-01-13T20:31:09.789Z,11.78
2023-01-13T20:33:38.871Z,12.14
2023-01-13T20:36:08.541Z,11.95
2023-01-13T20:38:37.749Z,12.02
2023-01-13T20:41:26.277Z,12.18
2023-01-13T20:43:55.018Z,11.55
2023-01-13T20:46:23.460Z,11.76
2023-01-13T20:48:52.119Z,11.76
2023-01-13T20:51:20.593Z,11.85
2023-01-13T20:53:49.049Z,12.00
2023-01-13T20:56:17.437Z,12.11
2023-01-13T20:58:46.113Z,12.22
2023-01-13T21:01:14.856Z,12.38
2023-01-13T21:03:43.385Z,12.34
2023-01-13T21:06:11.873Z,12.28
2023-01-13T21:08:40.356Z,12.30
2023-01-13T21:11:10.509Z,11.93
2023-01-13T21:13:57.610Z,11.94
2023-01-13T21:16:26.067Z,12.22
2023-01-13T21:19:10.743Z,12.39
2023-01-13T21:21:39.283Z,11.94
2023-01-13T21:24:10.971Z,12.19
2023-01-13T21:26:40.710Z,11.69
2023-01-13T21:29:09.284Z,12.08
2023-01-13T21:31:37.922Z,12.24
2023-01-13T21:34:06.302Z,12.14
2023-01-13T21:36:37.939Z,12.33
2023-01-13T21:39:06.632Z,12.31
2023-01-13T21:41:53.535Z,11.64
2023-01-13T21:44:40.814Z,11.82
2023-01-13T21:47:36.100Z,11.95
2023-01-13T21:50:10.001Z,11.69
2023-01-13T21:52:42.816Z,11.90
2023-01-13T21:55:25.117Z,11.98
2023-01-13T21:57:55.153Z,11.77
2023-01-13T22:00:31.090Z,11.87
2023-01-13T22:03:02.674Z,11.56
2023-01-13T22:05:31.515Z,11.50
2023-01-13T22:08:00.128Z,11.69
2023-01-13T22:10:30.492Z,11.55
2023-01-13T22:13:22.336Z,11.74
2023-01-13T22:15:50.892Z,11.90
2023-01-13T22:18:19.335Z,11.94
2023-01-13T22:20:49.115Z,12.07
2023-01-13T22:23:17.558Z,11.70
2023-01-13T22:25:46.099Z,11.94
2023-01-13T22:28:23.807Z,12.09
2023-01-13T22:30:53.532Z,11.75
2023-01-13T22:33:21.896Z,11.90
2023-01-13T22:35:56.759Z,11.75
2023-01-13T22:38:25.201Z,11.98
2023-01-13T22:40:58.020Z,11.98
2023-01-13T22:43:30.064Z,12.05
2023-01-13T22:46:03.910Z,12.25
2023-01-13T22:48:33.227Z,12.34
2023-01-13T22:51:13.781Z,12.03
2023-01-13T22:53:42.934Z,12.16
2023-01-13T22:56:17.584Z,12.28
2023-01-13T22:58:46.296Z,12.14
2023-01-13T23:01:17.374Z,12.10
2023-01-13T23:03:49.571Z,12.02
2023-01-13T23:06:19.602Z,12.20
2023-01-13T23:08:48.539Z,12.25
2023-01-13T23:11:19.697Z,12.12
2023-01-13T23:13:48.127Z,12.11
2023-01-13T23:16:21.100Z,11.82
2023-01-13T23:18:50.023Z,11.83
2023-01-13T23:21:24.723Z,11.99
2023-01-13T23:23:53.828Z,11.91
2023-01-13T23:26:22.535Z,11.98
2023-01-13T23:28:51.206Z,11.95
2023-01-13T23:31:21.654Z,11.82
2023-01-13T23:33:50.087Z,11.88
2023-01-13T23:36:24.270Z,11.78
2023-01-13T23:38:53.590Z,11.81
2023-01-13T23:41:23.917Z,11.86
2023-01-13T23:44:01.375Z,11.82
2023-01-13T23:46:31.355Z,11.79
2023-01-13T23:49:01.792Z,11.71
2023-01-13T23:51:30.817Z,11.79
2023-01-13T23:53:59.549Z,11.70
2023-01-13T23:56:30.653Z,11.72
2023-01-13T23:58:59.291Z,11.31
